Time;durP1;ratioP1;P1;durP2;ratioP2;P2;SDS_P1;SDS_P2;PMS_P1;PMS_P2;Temp;Humidity;BMP_temperature;BMP_pressure;BME280_temperature;BME280_humidity;BME280_pressure;Samples;Min_cycle;Max_cycle;Signal;HPM_P1;HPM_P2
2022/03/24 00:01:51;;;;;;;27.45;15.45;;;24.30;28.70;;;;;;6155645;28;83652;-65
2022/03/24 00:04:51;;;;;;;33.58;17.10;;;24.30;28.70;;;;;;6145754;28;82690;-65
2022/03/24 00:07:52;;;;;;;34.83;18.10;;;24.30;28.80;;;;;;6131903;28;84428;-65
2022/03/24 00:10:52;;;;;;;28.77;16.80;;;24.30;28.70;;;;;;6155430;28;83748;-65
2022/03/24 00:13:54;;;;;;;30.23;17.08;;;24.30;28.70;;;;;;6155676;28;84355;-65
2022/03/24 00:16:55;;;;;;;31.73;18.25;;;24.30;28.70;;;;;;6155455;28;83308;-65
2022/03/24 00:19:55;;;;;;;37.78;19.48;;;24.30;28.70;;;;;;6155493;28;82960;-64
2022/03/24 00:22:56;;;;;;;33.63;19.63;;;24.30;28.70;;;;;;6151243;28;83298;-64
2022/03/24 00:25:56;;;;;;;34.58;18.60;;;24.30;28.70;;;;;;6133154;28;84023;-65
2022/03/24 00:28:57;;;;;;;38.95;20.20;;;24.30;28.70;;;;;;6131197;28;83209;-65
2022/03/24 00:31:57;;;;;;;43.78;20.73;;;24.30;28.70;;;;;;6130865;28;83215;-64
2022/03/24 00:34:58;;;;;;;38.63;20.13;;;24.30;28.70;;;;;;6141346;28;83367;-64
2022/03/24 00:38:01;;;;;;;39.10;20.88;;;24.30;28.60;;;;;;6150748;28;84186;-65
2022/03/24 00:41:02;;;;;;;41.25;21.38;;;24.30;28.70;;;;;;6154234;28;83018;-64
2022/03/24 00:44:03;;;;;;;40.00;21.50;;;24.30;28.60;;;;;;6155052;28;82944;-65
2022/03/24 00:47:04;;;;;;;41.05;22.45;;;24.30;28.60;;;;;;6145247;28;85818;-64
2022/03/24 00:50:05;;;;;;;38.80;21.15;;;24.30;28.50;;;;;;6130965;28;83080;-64
2022/03/24 00:53:05;;;;;;;39.15;22.25;;;24.30;28.50;;;;;;6130895;28;83348;-65
2022/03/24 00:56:06;;;;;;;47.13;22.33;;;24.30;28.50;;;;;;6139129;28;85907;-64
2022/03/24 00:59:09;;;;;;;40.55;21.77;;;24.30;28.60;;;;;;6153134;28;84620;-64
2022/03/24 01:02:10;;;;;;;38.47;20.70;;;24.30;28.50;;;;;;6146918;28;83003;-65
2022/03/24 01:05:15;;;;;;;40.33;20.73;;;24.20;28.50;;;;;;6152772;28;85818;-65
2022/03/24 01:08:17;;;;;;;38.28;20.73;;;24.20;28.50;;;;;;6157345;28;83390;-65
2022/03/24 01:11:18;;;;;;;37.55;20.80;;;24.20;28.40;;;;;;6151622;28;86637;-65
2022/03/24 01:14:19;;;;;;;40.58;21.00;;;24.20;28.50;;;;;;6137988;28;83269;-65
2022/03/24 01:17:23;;;;;;;39.50;21.23;;;24.20;28.40;;;;;;6144689;28;82987;-66
2022/03/24 01:20:23;;;;;;;34.70;19.15;;;24.20;28.40;;;;;;6138239;28;86073;-65
2022/03/24 01:23:26;;;;;;;34.78;19.58;;;24.20;28.40;;;;;;6136503;28;83563;-65
2022/03/24 01:26:26;;;;;;;35.63;20.45;;;24.20;28.40;;;;;;6141105;28;82990;-65
2022/03/24 01:29:27;;;;;;;39.78;20.67;;;24.20;28.50;;;;;;6147603;28;83350;-64
2022/03/24 01:32:27;;;;;;;38.42;20.67;;;24.20;28.30;;;;;;6143634;28;83080;-65
2022/03/24 01:35:28;;;;;;;37.47;20.42;;;24.10;28.30;;;;;;6156652;28;86481;-65
2022/03/24 01:38:28;;;;;;;40.40;20.08;;;24.10;28.30;;;;;;6156183;28;84547;-65
2022/03/24 01:41:29;;;;;;;35.47;20.20;;;24.20;28.30;;;;;;6153027;28;83175;-65
2022/03/24 01:44:29;;;;;;;44.08;20.67;;;24.10;28.20;;;;;;6134823;28;85983;-65
2022/03/24 01:47:30;;;;;;;39.78;20.77;;;24.20;28.20;;;;;;6156973;28;84343;-65
2022/03/24 01:50:30;;;;;;;35.85;19.92;;;24.10;28.20;;;;;;6157993;28;82995;-65
2022/03/24 01:53:31;;;;;;;38.75;20.45;;;24.10;28.10;;;;;;6158406;28;83208;-64
2022/03/24 01:56:31;;;;;;;38.95;19.42;;;24.10;28.10;;;;;;6143575;28;83139;-65
2022/03/24 01:59:32;;;;;;;40.05;20.48;;;24.10;28.10;;;;;;6157047;28;83335;-65
2022/03/24 02:02:34;;;;;;;33.90;18.25;;;24.10;28.10;;;;;;6133203;28;83233;-65
2022/03/24 02:05:35;;;;;;;34.80;18.35;;;24.10;28.30;;;;;;6148972;28;85731;-65
2022/03/24 02:08:35;;;;;;;31.50;17.80;;;24.10;28.40;;;;;;6156542;28;85697;-65
2022/03/24 02:11:38;;;;;;;31.30;16.23;;;24.10;28.60;;;;;;6144524;28;85652;-66
2022/03/24 02:14:39;;;;;;;31.48;16.92;;;24.10;28.60;;;;;;6132196;28;85687;-66
2022/03/24 02:17:41;;;;;;;26.70;15.20;;;24.10;28.50;;;;;;6147793;28;84257;-65
2022/03/24 02:20:41;;;;;;;34.35;17.20;;;24.10;29.00;;;;;;6131552;28;85974;-65
2022/03/24 02:23:42;;;;;;;31.23;16.27;;;24.10;28.80;;;;;;6131646;28;84968;-66
2022/03/24 02:26:44;;;;;;;30.08;16.20;;;24.10;28.70;;;;;;6152300;28;85205;-65
2022/03/24 02:29:47;;;;;;;30.60;17.40;;;24.10;29.10;;;;;;6156910;28;84737;-65
2022/03/24 02:32:47;;;;;;;30.30;15.43;;;24.10;28.90;;;;;;6157194;28;83138;-65
2022/03/24 02:35:48;;;;;;;32.65;17.75;;;24.10;28.80;;;;;;6156082;28;84459;-65
2022/03/24 02:38:49;;;;;;;31.75;17.48;;;24.10;28.90;;;;;;6143341;28;83017;-65
2022/03/24 02:41:50;;;;;;;23.30;13.15;;;24.10;28.60;;;;;;6156226;28;83039;-65
2022/03/24 02:44:51;;;;;;;30.27;15.60;;;24.10;29.10;;;;;;6147742;28;84667;-65
2022/03/24 02:47:52;;;;;;;26.30;14.70;;;24.10;29.20;;;;;;6132685;28;83407;-65
2022/03/24 02:50:53;;;;;;;23.73;13.50;;;24.10;28.90;;;;;;6148624;28;83320;-65
2022/03/24 02:53:54;;;;;;;28.15;16.05;;;24.10;29.40;;;;;;6156928;28;83414;-65
2022/03/24 02:56:54;;;;;;;25.48;15.00;;;24.10;29.50;;;;;;6132879;28;84039;-65
2022/03/24 02:59:55;;;;;;;30.65;13.95;;;24.10;29.50;;;;;;6132582;28;83011;-65
2022/03/24 03:02:55;;;;;;;31.05;16.60;;;24.10;29.60;;;;;;6132664;28;85085;-66
2022/03/24 03:05:58;;;;;;;31.38;16.75;;;24.10;28.90;;;;;;6132458;28;85054;-66
2022/03/24 03:08:59;;;;;;;27.45;14.80;;;24.10;29.10;;;;;;6152226;28;83668;-66
2022/03/24 03:12:00;;;;;;;27.25;15.38;;;24.10;29.60;;;;;;6151045;28;84056;-66
2022/03/24 03:15:00;;;;;;;28.65;14.52;;;24.20;29.80;;;;;;6155600;28;84567;-66
2022/03/24 03:18:01;;;;;;;26.05;14.45;;;24.10;29.90;;;;;;6142700;28;84228;-66
2022/03/24 03:21:01;;;;;;;23.85;13.43;;;24.10;30.00;;;;;;6154907;28;84340;-66
2022/03/24 03:24:02;;;;;;;26.60;15.10;;;24.10;30.00;;;;;;6156008;28;83252;-66
2022/03/24 03:27:04;;;;;;;27.52;14.88;;;24.10;30.00;;;;;;6139754;28;84398;-66
2022/03/24 03:30:05;;;;;;;26.25;14.40;;;24.10;30.00;;;;;;6153656;28;84972;-65
2022/03/24 03:33:05;;;;;;;24.42;13.85;;;24.10;30.00;;;;;;6148867;28;83455;-66
2022/03/24 03:36:06;;;;;;;21.00;13.10;;;24.10;30.00;;;;;;6151035;28;84302;-66
2022/03/24 03:39:07;;;;;;;27.00;14.75;;;24.10;30.00;;;;;;6132099;28;83601;-66
2022/03/24 03:42:08;;;;;;;29.08;15.52;;;24.10;30.00;;;;;;6132078;28;83929;-66
2022/03/24 03:45:08;;;;;;;29.67;15.40;;;24.10;30.00;;;;;;6149575;28;83022;-67
2022/03/24 03:48:09;;;;;;;27.77;14.30;;;24.10;30.00;;;;;;6155230;28;83075;-66
2022/03/24 03:51:10;;;;;;;27.98;13.80;;;24.10;30.00;;;;;;6131986;28;84249;-66
2022/03/24 03:54:10;;;;;;;26.08;13.57;;;24.10;30.00;;;;;;6140067;28;83022;-67
2022/03/24 03:57:11;;;;;;;26.85;14.20;;;24.10;30.00;;;;;;6155989;28;83691;-66
2022/03/24 04:03:30;;;;;;;28.25;13.98;;;24.10;30.00;;;;;;6138106;28;83017;-66
2022/03/24 04:06:32;;;;;;;23.75;13.02;;;24.10;30.00;;;;;;6131208;28;83095;-66
2022/03/24 04:09:32;;;;;;;28.30;14.80;;;24.00;30.00;;;;;;6133986;28;83023;-67
2022/03/24 04:12:34;;;;;;;26.55;14.38;;;24.00;30.00;;;;;;6155494;28;83512;-67
2022/03/24 04:15:35;;;;;;;25.90;14.40;;;24.00;30.00;;;;;;6154768;28;83283;-67
2022/03/24 04:18:36;;;;;;;25.33;13.70;;;24.00;30.00;;;;;;6155521;28;83015;-67
2022/03/24 04:21:36;;;;;;;24.45;13.77;;;24.00;29.90;;;;;;6141307;28;83001;-67
2022/03/24 04:24:37;;;;;;;28.40;15.65;;;24.10;29.60;;;;;;6130474;28;82962;-67
2022/03/24 04:27:37;;;;;;;28.65;15.90;;;24.10;29.70;;;;;;6144260;28;83492;-66
2022/03/24 04:30:38;;;;;;;27.00;14.75;;;24.10;29.50;;;;;;6134999;28;83470;-67
2022/03/24 04:33:39;;;;;;;29.38;15.35;;;24.10;29.40;;;;;;6155026;28;83775;-65
2022/03/24 04:36:39;;;;;;;28.05;16.17;;;24.20;29.30;;;;;;6135984;28;83472;-65
2022/03/24 04:39:40;;;;;;;29.17;16.23;;;24.20;29.20;;;;;;6153354;28;83038;-66
2022/03/24 04:42:40;;;;;;;27.15;16.02;;;24.20;29.00;;;;;;6155359;28;84519;-66
2022/03/24 04:45:41;;;;;;;37.13;18.02;;;24.30;28.90;;;;;;6158975;28;83966;-66
2022/03/24 04:48:41;;;;;;;34.53;18.55;;;24.30;28.80;;;;;;6150414;28;83548;-66
2022/03/24 04:51:42;;;;;;;33.17;18.55;;;24.30;28.70;;;;;;6134633;28;83205;-66
2022/03/24 04:54:42;;;;;;;33.38;17.92;;;24.40;28.80;;;;;;6134838;28;82928;-67
2022/03/24 04:57:43;;;;;;;30.92;15.88;;;24.30;28.70;;;;;;6145988;28;84032;-66
2022/03/24 05:00:44;;;;;;;36.15;17.85;;;24.40;28.80;;;;;;6147833;28;84462;-64
2022/03/24 05:03:46;;;;;;;35.70;17.15;;;24.40;28.90;;;;;;6147567;28;83557;-64
2022/03/24 05:06:47;;;;;;;34.08;16.08;;;24.40;28.90;;;;;;6155334;28;84424;-63
2022/03/24 05:09:53;;;;;;;35.10;17.23;;;24.50;29.10;;;;;;6156935;28;84385;-64
2022/03/24 05:12:53;;;;;;;31.60;16.97;;;24.50;29.20;;;;;;6147585;28;83078;-64
2022/03/24 05:15:56;;;;;;;28.25;15.88;;;24.50;29.20;;;;;;6140072;28;83538;-65
2022/03/24 05:18:56;;;;;;;31.98;17.92;;;24.40;29.60;;;;;;6134319;28;82865;-64
2022/03/24 05:21:57;;;;;;;29.30;17.25;;;24.50;29.90;;;;;;6134086;28;83219;-71
2022/03/24 05:24:57;;;;;;;33.10;16.92;;;24.40;29.90;;;;;;6152892;28;82761;-70
2022/03/24 05:27:58;;;;;;;36.90;18.20;;;24.40;29.90;;;;;;6151659;28;83454;-67
2022/03/24 05:30:58;;;;;;;33.60;18.17;;;24.40;29.80;;;;;;6145471;28;85653;-65
2022/03/24 05:33:59;;;;;;;31.27;16.67;;;24.40;29.70;;;;;;6152436;28;83136;-65
2022/03/24 05:36:59;;;;;;;35.78;17.60;;;24.40;29.90;;;;;;6153902;28;82862;-67
2022/03/24 05:40:00;;;;;;;40.50;19.15;;;24.40;29.80;;;;;;6145281;28;82968;-67
2022/03/24 05:43:01;;;;;;;37.58;18.38;;;24.40;29.80;;;;;;6143949;28;82867;-67
2022/03/24 05:46:03;;;;;;;43.63;20.08;;;24.40;30.20;;;;;;6146381;28;82956;-66
2022/03/24 05:49:04;;;;;;;40.20;19.05;;;24.40;30.00;;;;;;6134350;28;83198;-65
2022/03/24 05:52:27;;;;;;;42.05;20.38;;;24.40;30.00;;;;;;6137708;28;83829;-63
2022/03/24 05:55:29;;;;;;;34.70;19.33;;;24.40;30.00;;;;;;6156288;28;83212;-66
2022/03/24 05:58:29;;;;;;;39.85;19.02;;;24.40;30.70;;;;;;6158069;28;84062;-64
2022/03/24 06:01:30;;;;;;;37.10;20.05;;;24.50;31.20;;;;;;6138323;28;83215;-64
2022/03/24 06:04:30;;;;;;;33.08;17.85;;;24.50;31.30;;;;;;6134396;28;83012;-67
2022/03/24 06:07:33;;;;;;;27.35;15.25;;;24.40;31.20;;;;;;6157994;28;82911;-64
2022/03/24 06:10:33;;;;;;;32.67;14.15;;;24.20;31.50;;;;;;6155428;28;82925;-65
2022/03/24 06:13:34;;;;;;;25.77;14.15;;;24.10;31.90;;;;;;6145598;28;82854;-68
2022/03/24 06:16:34;;;;;;;24.90;12.82;;;24.10;32.00;;;;;;6157422;28;83397;-67
2022/03/24 06:19:35;;;;;;;23.98;13.13;;;24.00;32.30;;;;;;6151864;28;83094;-65
2022/03/24 06:22:35;;;;;;;20.15;12.43;;;24.00;33.00;;;;;;6137520;28;83281;-66
2022/03/24 06:25:39;;;;;;;21.35;11.50;;;24.00;32.50;;;;;;6149303;28;83017;-72
2022/03/24 06:28:41;;;;;;;21.10;10.55;;;24.00;32.20;;;;;;6140900;28;82876;-67
2022/03/24 06:31:42;;;;;;;24.00;10.45;;;24.00;32.00;;;;;;6135563;28;83083;-68
2022/03/24 06:34:43;;;;;;;17.77;9.63;;;24.00;32.20;;;;;;6142889;28;82903;-70
2022/03/24 06:37:44;;;;;;;17.98;9.60;;;24.00;32.40;;;;;;6142059;28;82976;-67
2022/03/24 06:40:45;;;;;;;18.23;9.02;;;24.10;32.60;;;;;;6154292;28;81103;-67
2022/03/24 06:43:47;;;;;;;16.20;9.32;;;24.10;32.70;;;;;;6136403;28;80576;-67
2022/03/24 06:46:48;;;;;;;16.17;8.73;;;24.10;32.60;;;;;;6145053;28;80797;-66
2022/03/24 06:49:48;;;;;;;19.77;9.57;;;24.10;32.30;;;;;;6139097;28;80349;-69
2022/03/24 06:52:49;;;;;;;19.15;9.25;;;24.00;31.90;;;;;;6153332;28;80368;-72
2022/03/24 06:55:49;;;;;;;15.00;7.72;;;24.00;31.80;;;;;;6160953;28;81899;-71
2022/03/24 06:58:50;;;;;;;14.30;7.60;;;24.00;31.80;;;;;;6153199;28;80826;-71
2022/03/24 07:01:51;;;;;;;17.90;9.18;;;24.00;31.50;;;;;;6153936;28;80443;-65
2022/03/24 07:04:51;;;;;;;21.83;8.88;;;24.00;31.40;;;;;;6143508;28;80938;-64
2022/03/24 07:07:52;;;;;;;16.13;8.50;;;24.00;31.70;;;;;;6145890;28;81483;-66
2022/03/24 07:10:52;;;;;;;13.75;7.40;;;24.10;31.60;;;;;;6142962;28;80421;-66
2022/03/24 07:13:53;;;;;;;13.77;8.18;;;24.10;31.50;;;;;;6157801;28;81281;-65
2022/03/24 07:16:53;;;;;;;11.98;7.45;;;24.10;31.30;;;;;;6150867;28;81295;-65
2022/03/24 07:19:54;;;;;;;14.10;7.13;;;24.10;31.10;;;;;;6151427;28;80814;-67
2022/03/24 07:22:57;;;;;;;12.93;8.18;;;24.10;31.10;;;;;;6159495;28;80406;-68
2022/03/24 07:25:58;;;;;;;13.82;8.45;;;24.10;30.80;;;;;;6154250;28;80456;-67
2022/03/24 07:28:58;;;;;;;11.70;7.63;;;24.10;31.30;;;;;;6142279;28;81380;-67
2022/03/24 07:32:02;;;;;;;16.67;7.10;;;24.10;31.20;;;;;;6139394;28;80778;-67
2022/03/24 07:35:02;;;;;;;16.35;8.23;;;24.10;31.30;;;;;;6147304;28;80176;-67
2022/03/24 07:38:03;;;;;;;18.00;8.50;;;24.10;31.00;;;;;;6141531;28;80904;-67
2022/03/24 07:41:03;;;;;;;14.52;7.97;;;24.10;31.00;;;;;;6153267;28;82208;-68
2022/03/24 07:44:04;;;;;;;10.93;6.65;;;24.10;30.90;;;;;;6157336;28;81249;-66
2022/03/24 07:47:05;;;;;;;11.80;7.25;;;24.10;31.20;;;;;;6134634;28;80235;-65
2022/03/24 07:50:05;;;;;;;10.65;6.47;;;24.20;31.30;;;;;;6147146;28;81634;-65
2022/03/24 07:53:06;;;;;;;11.93;7.32;;;24.20;31.50;;;;;;6134037;28;81575;-70
2022/03/24 07:56:07;;;;;;;9.05;5.90;;;24.20;31.10;;;;;;6144060;28;81977;-65
2022/03/24 07:59:08;;;;;;;10.18;6.47;;;24.20;31.40;;;;;;6158379;28;81531;-66
2022/03/24 08:02:08;;;;;;;8.93;6.15;;;24.20;31.20;;;;;;6152377;28;80875;-66
2022/03/24 08:05:09;;;;;;;14.10;7.28;;;24.30;31.50;;;;;;6152382;28;82504;-66
2022/03/24 08:08:09;;;;;;;10.00;6.43;;;24.30;31.60;;;;;;6135318;28;80040;-66
2022/03/24 08:11:10;;;;;;;13.38;6.07;;;24.30;31.80;;;;;;6155250;28;80710;-66
2022/03/24 08:14:10;;;;;;;10.48;6.07;;;24.40;31.80;;;;;;6156006;28;81433;-65
2022/03/24 08:17:11;;;;;;;8.82;5.70;;;24.40;31.80;;;;;;6160764;28;81843;-66
2022/03/24 08:20:11;;;;;;;10.88;6.30;;;24.40;32.10;;;;;;6163910;28;80517;-65
2022/03/24 08:23:13;;;;;;;10.77;6.32;;;24.50;32.50;;;;;;6160739;28;80725;-66
2022/03/24 08:26:14;;;;;;;9.63;6.22;;;24.50;32.50;;;;;;6162201;28;81039;-66
2022/03/24 08:29:14;;;;;;;10.90;6.05;;;24.60;32.50;;;;;;6163234;28;80269;-65
2022/03/24 08:32:15;;;;;;;13.10;5.93;;;24.60;32.60;;;;;;6163448;28;80906;-65
2022/03/24 08:35:15;;;;;;;7.53;5.30;;;24.60;32.50;;;;;;6163191;28;80055;-65
2022/03/24 08:38:16;;;;;;;9.38;5.65;;;24.70;32.60;;;;;;6156564;28;80925;-66
2022/03/24 08:41:16;;;;;;;6.93;5.03;;;24.70;32.60;;;;;;6156701;28;81387;-66
2022/03/24 08:44:17;;;;;;;7.80;5.40;;;24.70;32.60;;;;;;6157121;28;81614;-68
2022/03/24 08:47:17;;;;;;;9.85;6.28;;;24.70;32.60;;;;;;6147604;28;80363;-65
2022/03/24 08:50:18;;;;;;;11.48;5.40;;;24.70;32.30;;;;;;6152745;28;82723;-67
2022/03/24 08:53:19;;;;;;;8.57;5.65;;;24.70;32.10;;;;;;6162827;28;84825;-64
2022/03/24 08:56:19;;;;;;;8.40;6.15;;;24.70;31.80;;;;;;6164376;28;80334;-67
2022/03/24 08:59:20;;;;;;;7.38;4.88;;;24.70;31.80;;;;;;6162160;28;80422;-65
2022/03/24 09:02:20;;;;;;;12.82;6.03;;;24.70;31.60;;;;;;6170571;28;80418;-65
2022/03/24 09:05:21;;;;;;;9.18;5.85;;;24.70;31.60;;;;;;6141411;28;80865;-65
2022/03/24 09:08:22;;;;;;;12.02;5.70;;;24.70;31.60;;;;;;6150926;28;81303;-65
2022/03/24 09:11:22;;;;;;;8.20;5.78;;;24.70;31.60;;;;;;6147309;28;80561;-66
2022/03/24 09:14:23;;;;;;;10.10;6.53;;;24.70;31.40;;;;;;6138895;28;80900;-65
2022/03/24 09:17:23;;;;;;;8.63;5.57;;;24.70;31.40;;;;;;6137695;28;80222;-69
2022/03/24 09:20:25;;;;;;;11.70;6.43;;;24.70;31.30;;;;;;6156531;28;81111;-67
2022/03/24 09:23:27;;;;;;;9.55;5.72;;;24.70;31.30;;;;;;6148310;28;80404;-68
2022/03/24 09:26:27;;;;;;;8.38;5.55;;;24.80;31.30;;;;;;6151228;28;80297;-67
2022/03/24 09:29:28;;;;;;;9.30;5.45;;;24.80;31.20;;;;;;6156401;28;80639;-68
2022/03/24 09:32:28;;;;;;;8.65;6.00;;;24.80;31.20;;;;;;6142235;28;80434;-68
2022/03/24 09:35:29;;;;;;;7.43;5.00;;;24.80;31.10;;;;;;6162908;28;80940;-67
2022/03/24 09:38:29;;;;;;;9.30;5.13;;;24.80;31.00;;;;;;6149435;28;81415;-67
2022/03/24 09:41:30;;;;;;;7.65;5.35;;;24.90;31.00;;;;;;6152128;28;82159;-68
2022/03/24 09:44:30;;;;;;;6.00;4.38;;;24.90;30.90;;;;;;6160194;28;80540;-67
2022/03/24 09:47:31;;;;;;;7.60;5.07;;;24.90;30.80;;;;;;6142379;28;80251;-68
2022/03/24 09:50:32;;;;;;;7.38;4.43;;;24.90;30.90;;;;;;6154004;28;80969;-66
2022/03/24 09:53:32;;;;;;;6.13;4.63;;;25.00;30.90;;;;;;6161998;28;80982;-68
2022/03/24 09:56:33;;;;;;;9.02;4.30;;;25.10;31.00;;;;;;6166772;28;80471;-68
2022/03/24 09:59:33;;;;;;;7.53;4.43;;;25.10;30.90;;;;;;6159996;28;80418;-68
2022/03/24 10:02:34;;;;;;;6.28;4.35;;;25.10;30.80;;;;;;6149817;28;80731;-67
2022/03/24 10:05:35;;;;;;;6.50;4.38;;;25.20;30.90;;;;;;6142576;28;80607;-68
2022/03/24 10:08:35;;;;;;;7.32;4.68;;;25.20;30.80;;;;;;6147877;28;81329;-67
2022/03/24 10:11:36;;;;;;;6.32;4.32;;;25.30;30.90;;;;;;6156342;28;80321;-67
2022/03/24 10:14:37;;;;;;;6.18;3.55;;;25.30;31.00;;;;;;6156252;28;81381;-67
2022/03/24 10:17:37;;;;;;;5.20;3.78;;;25.30;31.00;;;;;;6141998;28;80837;-67
2022/03/24 10:20:38;;;;;;;6.50;3.40;;;25.30;31.00;;;;;;6137808;28;80186;-68
2022/03/24 10:23:38;;;;;;;4.60;3.63;;;25.40;31.10;;;;;;6142215;28;80161;-68
2022/03/24 10:26:39;;;;;;;5.25;3.38;;;25.40;31.00;;;;;;6147280;28;81379;-67
2022/03/24 10:29:39;;;;;;;4.70;3.63;;;25.50;31.10;;;;;;6145998;28;80641;-68
2022/03/24 10:32:40;;;;;;;3.70;3.05;;;25.50;31.00;;;;;;6149464;28;80625;-67
2022/03/24 10:35:41;;;;;;;4.35;3.15;;;25.50;31.10;;;;;;6161604;28;80339;-67
2022/03/24 10:38:42;;;;;;;3.65;2.83;;;25.50;31.00;;;;;;6159188;28;81018;-67
2022/03/24 10:41:43;;;;;;;7.75;3.47;;;25.50;31.10;;;;;;6154744;28;80373;-68
2022/03/24 10:44:44;;;;;;;4.68;3.22;;;25.70;31.30;;;;;;6152646;28;80205;-66
2022/03/24 10:47:44;;;;;;;4.97;3.60;;;25.70;31.50;;;;;;6148923;28;80426;-66
2022/03/24 10:50:45;;;;;;;6.88;4.55;;;25.80;31.60;;;;;;6145281;28;82306;-65
2022/03/24 10:53:45;;;;;;;7.53;4.88;;;25.80;31.60;;;;;;6158692;28;82312;-67
2022/03/24 10:56:46;;;;;;;9.57;4.80;;;25.80;31.70;;;;;;6138607;28;80126;-69
2022/03/24 10:59:46;;;;;;;8.88;4.68;;;25.90;31.90;;;;;;6144288;28;80352;-68
2022/03/24 11:02:47;;;;;;;7.32;4.30;;;25.90;32.10;;;;;;6154351;28;80748;-66
2022/03/24 11:05:47;;;;;;;8.38;5.10;;;25.90;32.10;;;;;;6152635;28;81117;-68
2022/03/24 11:08:48;;;;;;;7.30;5.07;;;25.90;32.70;;;;;;6154455;28;80613;-67
2022/03/24 11:11:48;;;;;;;7.07;4.78;;;25.90;32.00;;;;;;6148762;28;82162;-67
2022/03/24 11:14:51;;;;;;;9.05;5.20;;;25.90;32.10;;;;;;6147749;28;80234;-68
2022/03/24 11:17:52;;;;;;;6.55;4.68;;;26.00;32.10;;;;;;6137004;28;80982;-67
2022/03/24 11:20:53;;;;;;;6.68;4.75;;;26.00;32.10;;;;;;6143699;28;80259;-68
2022/03/24 11:23:54;;;;;;;7.22;4.55;;;26.00;32.00;;;;;;6162439;28;80439;-68
2022/03/24 11:26:54;;;;;;;10.10;4.90;;;26.00;32.00;;;;;;6144663;28;80725;-67
2022/03/24 11:29:55;;;;;;;6.88;4.60;;;26.00;32.00;;;;;;6146725;28;80533;-67
2022/03/24 11:32:56;;;;;;;8.75;4.88;;;26.10;32.10;;;;;;6157686;28;80484;-67
2022/03/24 11:35:56;;;;;;;9.48;4.53;;;26.10;32.10;;;;;;6160373;28;80264;-67
2022/03/24 11:38:57;;;;;;;15.05;5.38;;;26.10;32.10;;;;;;6145273;28;80683;-67
2022/03/24 11:41:57;;;;;;;5.68;3.97;;;26.10;32.10;;;;;;6138171;28;80611;-64
2022/03/24 11:44:58;;;;;;;5.03;4.00;;;26.10;32.20;;;;;;6148587;28;81038;-69
2022/03/24 11:47:58;;;;;;;6.97;3.92;;;26.10;32.30;;;;;;6135084;28;80717;-67
2022/03/24 11:50:59;;;;;;;4.68;3.75;;;26.10;32.30;;;;;;6135347;28;80251;-68
2022/03/24 11:53:59;;;;;;;7.15;4.40;;;26.10;32.40;;;;;;6147541;28;80648;-68
2022/03/24 11:57:00;;;;;;;10.98;4.43;;;26.20;32.40;;;;;;6157232;28;81262;-69
2022/03/24 12:00:00;;;;;;;6.72;4.88;;;26.20;32.50;;;;;;6142120;28;80866;-67
2022/03/24 12:03:01;;;;;;;6.15;3.97;;;26.20;32.40;;;;;;6159392;28;80374;-69
2022/03/24 12:06:02;;;;;;;10.70;4.53;;;26.20;32.40;;;;;;6149461;28;80705;-70
2022/03/24 12:09:02;;;;;;;7.03;4.20;;;26.20;32.40;;;;;;6152260;28;81439;-70
2022/03/24 12:12:03;;;;;;;6.40;3.90;;;26.20;32.40;;;;;;6147675;28;80817;-70
2022/03/24 12:15:03;;;;;;;5.88;3.78;;;26.20;32.40;;;;;;6141925;28;80288;-67
2022/03/24 12:18:05;;;;;;;5.63;4.18;;;26.20;32.40;;;;;;6140055;28;81490;-69
2022/03/24 12:21:05;;;;;;;4.78;3.67;;;26.20;32.40;;;;;;6135641;28;80582;-70
2022/03/24 12:24:06;;;;;;;9.05;3.20;;;26.20;32.30;;;;;;6155756;28;80989;-70
2022/03/24 12:27:06;;;;;;;5.00;3.67;;;26.20;32.30;;;;;;6147006;28;81116;-69
2022/03/24 12:30:07;;;;;;;5.90;4.57;;;26.20;32.30;;;;;;6151295;28;80743;-70
2022/03/24 12:33:08;;;;;;;4.65;3.30;;;26.20;32.30;;;;;;6155169;28;80381;-70
2022/03/24 12:36:13;;;;;;;5.22;3.72;;;26.20;32.20;;;;;;6148418;28;80412;-69
2022/03/24 12:39:14;;;;;;;4.85;3.70;;;26.20;32.20;;;;;;6138532;28;86708;-68
2022/03/24 12:42:15;;;;;;;6.65;4.00;;;26.20;32.20;;;;;;6158295;28;80752;-69
2022/03/24 12:45:16;;;;;;;6.30;3.70;;;26.20;32.20;;;;;;6153217;28;80204;-69
2022/03/24 12:48:18;;;;;;;5.45;3.78;;;26.20;32.20;;;;;;6155842;28;81591;-69
2022/03/24 12:51:19;;;;;;;6.50;3.72;;;26.20;32.20;;;;;;6157917;28;81429;-69
2022/03/24 12:54:20;;;;;;;5.50;3.80;;;26.20;32.10;;;;;;6155691;28;80884;-68
2022/03/24 12:57:21;;;;;;;4.35;3.42;;;26.20;32.10;;;;;;6158751;28;82631;-68
2022/03/24 13:00:21;;;;;;;5.63;3.47;;;26.20;32.10;;;;;;6156004;28;80400;-69
2022/03/24 13:03:22;;;;;;;5.28;3.08;;;26.30;32.10;;;;;;6160526;28;80507;-69
2022/03/24 13:06:23;;;;;;;4.60;3.50;;;26.20;32.00;;;;;;6147443;28;81156;-70
2022/03/24 13:09:23;;;;;;;16.92;5.82;;;26.20;32.10;;;;;;6138603;28;81847;-71
2022/03/24 13:12:24;;;;;;;13.80;6.28;;;26.00;28.00;;;;;;6158226;28;80758;-70
2022/03/24 13:15:24;;;;;;;9.23;5.72;;;25.60;25.70;;;;;;6163586;28;80414;-66
2022/03/24 13:18:25;;;;;;;9.90;5.70;;;25.40;26.00;;;;;;6167528;28;82369;-68
2022/03/24 13:21:26;;;;;;;14.25;5.93;;;25.50;26.20;;;;;;6163225;28;80451;-68
2022/03/24 13:24:26;;;;;;;10.10;5.03;;;25.50;26.30;;;;;;6162669;28;80369;-69
2022/03/24 13:27:27;;;;;;;11.00;4.95;;;25.50;26.10;;;;;;6160031;28;81359;-70
2022/03/24 13:30:27;;;;;;;9.55;4.85;;;25.40;26.20;;;;;;6151491;28;80484;-68
2022/03/24 13:33:28;;;;;;;7.35;4.63;;;25.40;25.90;;;;;;6138691;28;80522;-69
2022/03/24 13:36:28;;;;;;;8.57;5.13;;;25.20;25.30;;;;;;6150289;28;80820;-65
2022/03/24 13:39:29;;;;;;;11.15;4.65;;;24.90;25.00;;;;;;6156549;28;80375;-67
2022/03/24 13:42:29;;;;;;;9.05;4.32;;;24.80;25.30;;;;;;6146636;28;80268;-67
2022/03/24 13:45:30;;;;;;;13.07;5.60;;;24.90;25.70;;;;;;6156573;28;80596;-67
2022/03/24 13:48:31;;;;;;;9.45;4.30;;;25.00;26.00;;;;;;6159275;28;81654;-66
2022/03/24 13:51:31;;;;;;;9.55;4.65;;;25.10;25.60;;;;;;6138216;28;80136;-66
2022/03/24 13:54:34;;;;;;;8.77;4.20;;;24.90;25.70;;;;;;6151590;28;80477;-66
2022/03/24 13:57:34;;;;;;;9.73;4.53;;;25.00;25.60;;;;;;6144286;28;80250;-66
2022/03/24 14:00:35;;;;;;;9.50;4.60;;;24.80;25.30;;;;;;6157791;28;80585;-66
2022/03/24 14:03:36;;;;;;;10.05;4.18;;;24.90;25.60;;;;;;6162303;28;80656;-68
2022/03/24 14:06:36;;;;;;;7.78;4.53;;;24.90;25.70;;;;;;6138121;28;80312;-68
2022/03/24 14:09:37;;;;;;;7.07;4.15;;;25.00;25.80;;;;;;6140885;28;81476;-67
2022/03/24 14:12:37;;;;;;;4.93;3.33;;;25.10;25.90;;;;;;6160560;28;80393;-67
2022/03/24 14:15:38;;;;;;;6.60;4.00;;;25.10;25.80;;;;;;6147580;28;80311;-68
2022/03/24 14:18:38;;;;;;;8.25;3.60;;;25.10;26.10;;;;;;6160827;28;80434;-73
2022/03/24 14:21:39;;;;;;;6.70;3.63;;;25.10;25.90;;;;;;6156160;28;84549;-67
2022/03/24 14:24:39;;;;;;;9.13;3.80;;;25.10;26.20;;;;;;6155517;28;81816;-68
2022/03/24 14:27:40;;;;;;;9.27;3.80;;;25.10;26.00;;;;;;6154908;28;80589;-68
2022/03/24 14:30:41;;;;;;;8.73;4.20;;;25.00;26.10;;;;;;6161487;28;80284;-68
2022/03/24 14:33:42;;;;;;;7.90;3.30;;;25.00;26.00;;;;;;6145596;28;80573;-68
2022/03/24 14:36:46;;;;;;;6.40;4.05;;;24.90;26.00;;;;;;6144957;28;80896;-68
2022/03/24 14:39:46;;;;;;;11.82;4.68;;;24.90;26.10;;;;;;6136891;28;80571;-67
2022/03/24 14:42:47;;;;;;;8.95;3.60;;;24.90;26.00;;;;;;6153434;28;80693;-67
2022/03/24 14:45:48;;;;;;;7.32;4.40;;;24.80;26.20;;;;;;6149745;28;80716;-68
2022/03/24 14:48:48;;;;;;;5.90;3.90;;;24.70;26.10;;;;;;6144347;28;80419;-68
2022/03/24 14:51:49;;;;;;;9.07;3.58;;;24.70;26.10;;;;;;6152955;28;82082;-72
2022/03/24 14:54:49;;;;;;;11.68;4.07;;;24.70;26.30;;;;;;6137603;28;80251;-66
2022/03/24 14:57:52;;;;;;;8.38;4.35;;;24.70;26.90;;;;;;6140078;28;80794;-70
2022/03/24 15:00:53;;;;;;;11.93;3.40;;;24.80;27.20;;;;;;6160717;28;80624;-65
2022/03/24 15:03:53;;;;;;;10.07;3.88;;;24.90;27.40;;;;;;6144171;28;81666;-66
2022/03/24 15:06:54;;;;;;;11.00;3.90;;;24.90;27.90;;;;;;6158949;28;81396;-66
2022/03/24 15:09:54;;;;;;;16.50;4.75;;;24.90;27.20;;;;;;6147212;28;80424;-73
2022/03/24 15:12:56;;;;;;;13.90;4.30;;;24.90;27.20;;;;;;6135634;28;81372;-66
2022/03/24 15:16:03;;;;;;;7.97;3.85;;;25.00;27.30;;;;;;6157668;28;80659;-67
2022/03/24 15:19:03;;;;;;;10.57;3.97;;;25.00;27.40;;;;;;6153212;28;81585;-66
2022/03/24 15:22:05;;;;;;;7.88;3.97;;;25.00;27.40;;;;;;6138976;28;80247;-63
2022/03/24 15:25:05;;;;;;;9.80;4.40;;;25.00;27.40;;;;;;6150995;28;80714;-67
2022/03/24 15:28:06;;;;;;;7.63;3.58;;;25.10;27.60;;;;;;6158110;28;80348;-67
2022/03/24 15:31:06;;;;;;;7.22;4.20;;;25.10;27.80;;;;;;6153419;28;80286;-68